SVCW weather

Chinazón Airport
Trujillo, Venezuela

Public forecast

Using degrees Celsius for public forecast. Weather courtesy of forecast.io.

METAR (pilot weather report)

Report is more than 6 hours old.

Closest report is Hacienda San José Airport, 10.3 nm (19.0 km) NW. Retrieved 2009/08/18 12:00 UTC (10 years ago):

SVSS 181200Z 00000KT 5000 +HZ BKN030 XX/XX Q1014

TAF (pilot weather forecast)

Forecast is more than 12 hours old.

Closest forecast is La Chinita International Airport, 87.6 nm (162.3 km) NNW. Retrieved 2019/04/18 00:06 UTC (1 day ago):

TAF SVMC 182200Z 1900/2000 03011KT 9000 DZ BKN016 TX30/1918Z TN26/1903Z TEMPO 1900/1904 07003KT 9000 DZ FEW016 SCT100